sensor_id;sensor_type;location;lat;lon;timestamp;P1;durP1;ratioP1;P2;durP2;ratioP2
11809;SDS011;5962;41.566;23.734;2024-01-30T00:02:17;3.03;;;2.07;;
11809;SDS011;5962;41.566;23.734;2024-01-30T00:04:45;2.17;;;1.80;;
11809;SDS011;5962;41.566;23.734;2024-01-30T00:07:14;4.50;;;2.40;;
11809;SDS011;5962;41.566;23.734;2024-01-30T00:09:42;2.87;;;2.23;;
11809;SDS011;5962;41.566;23.734;2024-01-30T00:12:10;2.70;;;2.17;;
11809;SDS011;5962;41.566;23.734;2024-01-30T00:14:38;3.23;;;2.20;;
11809;SDS011;5962;41.566;23.734;2024-01-30T00:17:06;2.93;;;2.10;;
11809;SDS011;5962;41.566;23.734;2024-01-30T00:19:34;1.70;;;1.50;;
11809;SDS011;5962;41.566;23.734;2024-01-30T00:22:02;2.83;;;2.20;;
11809;SDS011;5962;41.566;23.734;2024-01-30T00:24:31;10.07;;;3.80;;
11809;SDS011;5962;41.566;23.734;2024-01-30T00:26:59;2.43;;;1.90;;
11809;SDS011;5962;41.566;23.734;2024-01-30T00:29:27;2.53;;;1.83;;
11809;SDS011;5962;41.566;23.734;2024-01-30T00:31:57;2.03;;;1.70;;
11809;SDS011;5962;41.566;23.734;2024-01-30T00:34:25;2.17;;;1.60;;
11809;SDS011;5962;41.566;23.734;2024-01-30T00:36:53;3.97;;;2.10;;
11809;SDS011;5962;41.566;23.734;2024-01-30T00:39:21;2.97;;;2.20;;
11809;SDS011;5962;41.566;23.734;2024-01-30T00:41:51;3.27;;;2.20;;
11809;SDS011;5962;41.566;23.734;2024-01-30T00:44:19;2.83;;;2.00;;
11809;SDS011;5962;41.566;23.734;2024-01-30T00:46:46;2.53;;;2.10;;
11809;SDS011;5962;41.566;23.734;2024-01-30T00:49:14;3.53;;;1.80;;
11809;SDS011;5962;41.566;23.734;2024-01-30T00:51:42;2.20;;;1.60;;
11809;SDS011;5962;41.566;23.734;2024-01-30T00:54:10;2.37;;;1.90;;
11809;SDS011;5962;41.566;23.734;2024-01-30T00:56:38;3.60;;;2.43;;
11809;SDS011;5962;41.566;23.734;2024-01-30T00:59:08;3.60;;;2.13;;
11809;SDS011;5962;41.566;23.734;2024-01-30T01:01:36;2.30;;;1.90;;
11809;SDS011;5962;41.566;23.734;2024-01-30T01:04:04;3.03;;;1.80;;
11809;SDS011;5962;41.566;23.734;2024-01-30T01:06:32;2.43;;;1.90;;
11809;SDS011;5962;41.566;23.734;2024-01-30T01:09:00;2.67;;;1.80;;
11809;SDS011;5962;41.566;23.734;2024-01-30T01:11:29;2.10;;;1.90;;
11809;SDS011;5962;41.566;23.734;2024-01-30T01:13:57;2.13;;;1.90;;
11809;SDS011;5962;41.566;23.734;2024-01-30T01:16:27;2.00;;;1.80;;
11809;SDS011;5962;41.566;23.734;2024-01-30T01:18:55;2.57;;;1.67;;
11809;SDS011;5962;41.566;23.734;2024-01-30T01:21:23;2.40;;;1.53;;
11809;SDS011;5962;41.566;23.734;2024-01-30T01:23:51;2.90;;;2.20;;
11809;SDS011;5962;41.566;23.734;2024-01-30T01:26:19;1.93;;;1.67;;
11809;SDS011;5962;41.566;23.734;2024-01-30T01:28:47;2.30;;;1.90;;
11809;SDS011;5962;41.566;23.734;2024-01-30T01:31:14;1.60;;;1.50;;
11809;SDS011;5962;41.566;23.734;2024-01-30T01:33:45;2.87;;;2.30;;
11809;SDS011;5962;41.566;23.734;2024-01-30T01:36:13;2.80;;;2.03;;
11809;SDS011;5962;41.566;23.734;2024-01-30T01:38:41;5.27;;;4.17;;
11809;SDS011;5962;41.566;23.734;2024-01-30T01:41:09;3.03;;;2.40;;
11809;SDS011;5962;41.566;23.734;2024-01-30T01:43:37;3.53;;;2.60;;
11809;SDS011;5962;41.566;23.734;2024-01-30T01:46:05;3.73;;;2.47;;
11809;SDS011;5962;41.566;23.734;2024-01-30T01:48:34;4.27;;;2.60;;
11809;SDS011;5962;41.566;23.734;2024-01-30T01:51:03;3.80;;;2.30;;
11809;SDS011;5962;41.566;23.734;2024-01-30T01:53:31;2.40;;;2.07;;
11809;SDS011;5962;41.566;23.734;2024-01-30T01:56:00;2.87;;;2.13;;
11809;SDS011;5962;41.566;23.734;2024-01-30T01:58:28;3.53;;;2.50;;
11809;SDS011;5962;41.566;23.734;2024-01-30T02:00:57;3.27;;;2.23;;
11809;SDS011;5962;41.566;23.734;2024-01-30T02:03:26;2.67;;;2.13;;
11809;SDS011;5962;41.566;23.734;2024-01-30T02:05:54;2.33;;;2.00;;
11809;SDS011;5962;41.566;23.734;2024-01-30T02:08:24;2.83;;;2.20;;
11809;SDS011;5962;41.566;23.734;2024-01-30T02:10:53;2.40;;;2.13;;
11809;SDS011;5962;41.566;23.734;2024-01-30T02:13:21;2.10;;;1.90;;
11809;SDS011;5962;41.566;23.734;2024-01-30T02:15:49;2.27;;;2.00;;
11809;SDS011;5962;41.566;23.734;2024-01-30T02:18:19;2.30;;;2.07;;
11809;SDS011;5962;41.566;23.734;2024-01-30T02:20:47;2.50;;;2.30;;
11809;SDS011;5962;41.566;23.734;2024-01-30T02:23:17;3.97;;;2.87;;
11809;SDS011;5962;41.566;23.734;2024-01-30T02:25:47;3.70;;;1.80;;
11809;SDS011;5962;41.566;23.734;2024-01-30T02:28:15;1.90;;;1.73;;
11809;SDS011;5962;41.566;23.734;2024-01-30T02:30:43;1.97;;;1.70;;
11809;SDS011;5962;41.566;23.734;2024-01-30T02:33:11;3.03;;;2.10;;
11809;SDS011;5962;41.566;23.734;2024-01-30T02:35:39;2.30;;;1.87;;
11809;SDS011;5962;41.566;23.734;2024-01-30T02:38:07;4.57;;;2.00;;
11809;SDS011;5962;41.566;23.734;2024-01-30T02:40:36;3.03;;;2.20;;
11809;SDS011;5962;41.566;23.734;2024-01-30T02:43:04;2.83;;;2.20;;
11809;SDS011;5962;41.566;23.734;2024-01-30T02:45:32;3.37;;;2.23;;
11809;SDS011;5962;41.566;23.734;2024-01-30T02:48:00;3.90;;;2.47;;
11809;SDS011;5962;41.566;23.734;2024-01-30T02:50:28;3.73;;;2.50;;
11809;SDS011;5962;41.566;23.734;2024-01-30T02:52:56;3.50;;;2.47;;
11809;SDS011;5962;41.566;23.734;2024-01-30T02:55:24;5.07;;;2.93;;
11809;SDS011;5962;41.566;23.734;2024-01-30T02:57:54;3.73;;;2.30;;
11809;SDS011;5962;41.566;23.734;2024-01-30T03:00:22;2.40;;;2.20;;
11809;SDS011;5962;41.566;23.734;2024-01-30T03:02:50;3.30;;;2.10;;
11809;SDS011;5962;41.566;23.734;2024-01-30T03:05:18;3.07;;;2.50;;
11809;SDS011;5962;41.566;23.734;2024-01-30T03:07:46;2.53;;;2.33;;
11809;SDS011;5962;41.566;23.734;2024-01-30T03:10:14;2.70;;;1.90;;
11809;SDS011;5962;41.566;23.734;2024-01-30T03:12:42;2.50;;;2.10;;
11809;SDS011;5962;41.566;23.734;2024-01-30T03:15:11;2.07;;;1.87;;
11809;SDS011;5962;41.566;23.734;2024-01-30T03:17:39;2.97;;;2.10;;
11809;SDS011;5962;41.566;23.734;2024-01-30T03:20:08;2.57;;;2.17;;
11809;SDS011;5962;41.566;23.734;2024-01-30T03:22:37;3.60;;;2.80;;
11809;SDS011;5962;41.566;23.734;2024-01-30T03:25:05;2.13;;;1.90;;
11809;SDS011;5962;41.566;23.734;2024-01-30T03:27:33;2.43;;;2.20;;
11809;SDS011;5962;41.566;23.734;2024-01-30T03:30:02;2.03;;;1.67;;
11809;SDS011;5962;41.566;23.734;2024-01-30T03:32:31;2.30;;;2.00;;
11809;SDS011;5962;41.566;23.734;2024-01-30T03:34:59;4.20;;;1.90;;
11809;SDS011;5962;41.566;23.734;2024-01-30T03:37:28;1.97;;;1.73;;
11809;SDS011;5962;41.566;23.734;2024-01-30T03:39:56;3.67;;;2.67;;
11809;SDS011;5962;41.566;23.734;2024-01-30T03:42:24;2.73;;;2.37;;
11809;SDS011;5962;41.566;23.734;2024-01-30T03:44:52;2.67;;;2.10;;
11809;SDS011;5962;41.566;23.734;2024-01-30T03:47:21;4.27;;;1.90;;
11809;SDS011;5962;41.566;23.734;2024-01-30T03:49:50;2.37;;;1.93;;
11809;SDS011;5962;41.566;23.734;2024-01-30T03:52:18;2.10;;;1.80;;
11809;SDS011;5962;41.566;23.734;2024-01-30T03:54:46;1.83;;;1.70;;
11809;SDS011;5962;41.566;23.734;2024-01-30T03:57:14;3.37;;;2.20;;
11809;SDS011;5962;41.566;23.734;2024-01-30T03:59:42;2.63;;;1.93;;
11809;SDS011;5962;41.566;23.734;2024-01-30T04:02:10;2.50;;;2.30;;
11809;SDS011;5962;41.566;23.734;2024-01-30T04:04:38;2.40;;;2.20;;
11809;SDS011;5962;41.566;23.734;2024-01-30T04:07:08;2.90;;;2.60;;
11809;SDS011;5962;41.566;23.734;2024-01-30T04:09:38;4.17;;;2.20;;
11809;SDS011;5962;41.566;23.734;2024-01-30T04:12:06;3.30;;;2.67;;
11809;SDS011;5962;41.566;23.734;2024-01-30T04:14:34;4.90;;;3.10;;
11809;SDS011;5962;41.566;23.734;2024-01-30T04:17:02;2.50;;;2.20;;
11809;SDS011;5962;41.566;23.734;2024-01-30T04:19:30;3.17;;;2.87;;
11809;SDS011;5962;41.566;23.734;2024-01-30T04:21:58;5.67;;;2.83;;
11809;SDS011;5962;41.566;23.734;2024-01-30T04:24:28;3.37;;;2.40;;
11809;SDS011;5962;41.566;23.734;2024-01-30T04:26:56;2.93;;;2.60;;
11809;SDS011;5962;41.566;23.734;2024-01-30T04:29:23;3.47;;;2.67;;
11809;SDS011;5962;41.566;23.734;2024-01-30T04:31:51;6.07;;;3.63;;
11809;SDS011;5962;41.566;23.734;2024-01-30T04:34:19;4.17;;;2.67;;
11809;SDS011;5962;41.566;23.734;2024-01-30T04:36:47;3.37;;;2.43;;
11809;SDS011;5962;41.566;23.734;2024-01-30T04:39:15;4.03;;;2.90;;
11809;SDS011;5962;41.566;23.734;2024-01-30T04:41:45;4.97;;;2.83;;
11809;SDS011;5962;41.566;23.734;2024-01-30T04:44:13;4.70;;;3.33;;
11809;SDS011;5962;41.566;23.734;2024-01-30T04:46:40;3.00;;;2.20;;
11809;SDS011;5962;41.566;23.734;2024-01-30T04:49:09;2.87;;;2.27;;
11809;SDS011;5962;41.566;23.734;2024-01-30T04:51:37;3.07;;;2.10;;
11809;SDS011;5962;41.566;23.734;2024-01-30T04:54:05;3.47;;;2.80;;
11809;SDS011;5962;41.566;23.734;2024-01-30T04:56:33;2.93;;;2.30;;
11809;SDS011;5962;41.566;23.734;2024-01-30T04:59:03;4.57;;;3.17;;
11809;SDS011;5962;41.566;23.734;2024-01-30T05:01:31;4.53;;;3.23;;
11809;SDS011;5962;41.566;23.734;2024-01-30T05:03:59;4.67;;;2.77;;
11809;SDS011;5962;41.566;23.734;2024-01-30T05:06:27;4.03;;;2.83;;
11809;SDS011;5962;41.566;23.734;2024-01-30T05:08:55;5.30;;;3.47;;
11809;SDS011;5962;41.566;23.734;2024-01-30T05:11:23;4.43;;;3.33;;
11809;SDS011;5962;41.566;23.734;2024-01-30T05:13:51;3.80;;;3.20;;
11809;SDS011;5962;41.566;23.734;2024-01-30T05:16:20;5.07;;;3.37;;
11809;SDS011;5962;41.566;23.734;2024-01-30T05:18:49;3.77;;;2.67;;
11809;SDS011;5962;41.566;23.734;2024-01-30T05:21:16;6.40;;;3.30;;
11809;SDS011;5962;41.566;23.734;2024-01-30T05:23:45;3.83;;;2.80;;
11809;SDS011;5962;41.566;23.734;2024-01-30T05:26:13;3.63;;;2.77;;
11809;SDS011;5962;41.566;23.734;2024-01-30T05:28:41;7.57;;;3.33;;
11809;SDS011;5962;41.566;23.734;2024-01-30T05:31:10;4.80;;;2.93;;
11809;SDS011;5962;41.566;23.734;2024-01-30T05:33:40;5.10;;;2.87;;
11809;SDS011;5962;41.566;23.734;2024-01-30T05:36:08;3.70;;;2.90;;
11809;SDS011;5962;41.566;23.734;2024-01-30T05:38:39;8.10;;;4.57;;
11809;SDS011;5962;41.566;23.734;2024-01-30T05:41:07;5.37;;;3.40;;
11809;SDS011;5962;41.566;23.734;2024-01-30T05:43:36;7.87;;;4.83;;
11809;SDS011;5962;41.566;23.734;2024-01-30T05:46:04;8.10;;;4.67;;
11809;SDS011;5962;41.566;23.734;2024-01-30T05:48:32;10.43;;;6.40;;
11809;SDS011;5962;41.566;23.734;2024-01-30T05:51:03;9.43;;;6.20;;
11809;SDS011;5962;41.566;23.734;2024-01-30T05:53:31;6.43;;;4.27;;
11809;SDS011;5962;41.566;23.734;2024-01-30T05:55:59;6.03;;;4.43;;
11809;SDS011;5962;41.566;23.734;2024-01-30T05:58:28;6.13;;;3.97;;
11809;SDS011;5962;41.566;23.734;2024-01-30T06:00:57;7.60;;;4.37;;
11809;SDS011;5962;41.566;23.734;2024-01-30T06:03:25;7.07;;;3.63;;
11809;SDS011;5962;41.566;23.734;2024-01-30T06:05:53;5.87;;;3.80;;
11809;SDS011;5962;41.566;23.734;2024-01-30T06:08:22;5.37;;;3.83;;
11809;SDS011;5962;41.566;23.734;2024-01-30T06:10:50;4.43;;;2.67;;
11809;SDS011;5962;41.566;23.734;2024-01-30T06:13:19;4.73;;;2.80;;
11809;SDS011;5962;41.566;23.734;2024-01-30T06:15:47;12.10;;;6.40;;
11809;SDS011;5962;41.566;23.734;2024-01-30T06:18:15;8.07;;;5.13;;
11809;SDS011;5962;41.566;23.734;2024-01-30T06:20:43;14.90;;;6.77;;
11809;SDS011;5962;41.566;23.734;2024-01-30T06:23:12;12.93;;;7.37;;
11809;SDS011;5962;41.566;23.734;2024-01-30T06:25:42;5.43;;;3.50;;
11809;SDS011;5962;41.566;23.734;2024-01-30T06:28:10;6.60;;;3.83;;
11809;SDS011;5962;41.566;23.734;2024-01-30T06:30:38;7.40;;;4.20;;
11809;SDS011;5962;41.566;23.734;2024-01-30T06:33:06;9.60;;;5.80;;
11809;SDS011;5962;41.566;23.734;2024-01-30T06:35:34;8.43;;;4.70;;
11809;SDS011;5962;41.566;23.734;2024-01-30T06:38:07;5.93;;;3.00;;
11809;SDS011;5962;41.566;23.734;2024-01-30T06:40:35;10.73;;;4.83;;
11809;SDS011;5962;41.566;23.734;2024-01-30T06:43:05;10.33;;;5.60;;
11809;SDS011;5962;41.566;23.734;2024-01-30T06:45:34;11.60;;;4.90;;
11809;SDS011;5962;41.566;23.734;2024-01-30T06:48:02;9.63;;;5.00;;
11809;SDS011;5962;41.566;23.734;2024-01-30T06:50:30;10.03;;;5.63;;
11809;SDS011;5962;41.566;23.734;2024-01-30T06:52:58;7.33;;;4.17;;
11809;SDS011;5962;41.566;23.734;2024-01-30T06:55:26;11.57;;;3.17;;
11809;SDS011;5962;41.566;23.734;2024-01-30T06:57:54;4.80;;;3.40;;
11809;SDS011;5962;41.566;23.734;2024-01-30T07:00:23;10.10;;;4.27;;
11809;SDS011;5962;41.566;23.734;2024-01-30T07:02:51;8.50;;;4.60;;
11809;SDS011;5962;41.566;23.734;2024-01-30T07:05:19;8.93;;;5.47;;
11809;SDS011;5962;41.566;23.734;2024-01-30T07:07:48;6.33;;;4.63;;
11809;SDS011;5962;41.566;23.734;2024-01-30T07:10:16;6.67;;;4.60;;
11809;SDS011;5962;41.566;23.734;2024-01-30T07:12:44;10.70;;;6.47;;
11809;SDS011;5962;41.566;23.734;2024-01-30T07:15:12;6.50;;;4.40;;
11809;SDS011;5962;41.566;23.734;2024-01-30T07:17:44;4.73;;;3.63;;
11809;SDS011;5962;41.566;23.734;2024-01-30T07:20:12;5.83;;;3.63;;
11809;SDS011;5962;41.566;23.734;2024-01-30T07:22:41;5.53;;;3.60;;
11809;SDS011;5962;41.566;23.734;2024-01-30T07:25:10;4.50;;;3.40;;
11809;SDS011;5962;41.566;23.734;2024-01-30T07:27:38;6.17;;;4.37;;
11809;SDS011;5962;41.566;23.734;2024-01-30T07:30:06;13.03;;;7.23;;
11809;SDS011;5962;41.566;23.734;2024-01-30T07:32:34;10.13;;;6.00;;
11809;SDS011;5962;41.566;23.734;2024-01-30T07:35:04;5.47;;;4.00;;
11809;SDS011;5962;41.566;23.734;2024-01-30T07:37:32;5.33;;;3.57;;
11809;SDS011;5962;41.566;23.734;2024-01-30T07:40:01;5.20;;;3.73;;
11809;SDS011;5962;41.566;23.734;2024-01-30T07:42:29;4.80;;;3.03;;
11809;SDS011;5962;41.566;23.734;2024-01-30T07:44:57;3.37;;;2.50;;
11809;SDS011;5962;41.566;23.734;2024-01-30T07:47:25;3.97;;;3.00;;
11809;SDS011;5962;41.566;23.734;2024-01-30T07:49:53;3.53;;;2.53;;
11809;SDS011;5962;41.566;23.734;2024-01-30T07:52:23;2.73;;;2.13;;
11809;SDS011;5962;41.566;23.734;2024-01-30T07:54:51;7.63;;;3.07;;
11809;SDS011;5962;41.566;23.734;2024-01-30T07:57:19;3.60;;;2.30;;
11809;SDS011;5962;41.566;23.734;2024-01-30T07:59:47;4.50;;;1.90;;
11809;SDS011;5962;41.566;23.734;2024-01-30T08:02:15;3.00;;;2.30;;
11809;SDS011;5962;41.566;23.734;2024-01-30T08:04:43;3.87;;;2.87;;
11809;SDS011;5962;41.566;23.734;2024-01-30T08:07:15;2.93;;;1.87;;
11809;SDS011;5962;41.566;23.734;2024-01-30T08:09:45;1.57;;;1.47;;
11809;SDS011;5962;41.566;23.734;2024-01-30T08:12:13;2.63;;;1.87;;
11809;SDS011;5962;41.566;23.734;2024-01-30T08:14:41;4.47;;;2.20;;
11809;SDS011;5962;41.566;23.734;2024-01-30T08:17:09;2.60;;;2.07;;
11809;SDS011;5962;41.566;23.734;2024-01-30T08:19:37;2.63;;;2.00;;
11809;SDS011;5962;41.566;23.734;2024-01-30T08:22:05;1.77;;;1.60;;
11809;SDS011;5962;41.566;23.734;2024-01-30T08:24:33;3.23;;;2.27;;
11809;SDS011;5962;41.566;23.734;2024-01-30T08:27:02;1.90;;;1.70;;
11809;SDS011;5962;41.566;23.734;2024-01-30T08:29:31;5.20;;;2.20;;
11809;SDS011;5962;41.566;23.734;2024-01-30T08:31:59;2.80;;;2.00;;
11809;SDS011;5962;41.566;23.734;2024-01-30T08:34:27;2.67;;;2.00;;
11809;SDS011;5962;41.566;23.734;2024-01-30T08:36:55;6.37;;;3.63;;
11809;SDS011;5962;41.566;23.734;2024-01-30T08:39:23;2.43;;;2.03;;
11809;SDS011;5962;41.566;23.734;2024-01-30T08:41:52;6.23;;;2.27;;
11809;SDS011;5962;41.566;23.734;2024-01-30T08:44:21;5.70;;;2.93;;
11809;SDS011;5962;41.566;23.734;2024-01-30T08:46:49;2.07;;;1.40;;
11809;SDS011;5962;41.566;23.734;2024-01-30T08:49:18;3.37;;;2.63;;
11809;SDS011;5962;41.566;23.734;2024-01-30T08:51:47;3.53;;;2.27;;
11809;SDS011;5962;41.566;23.734;2024-01-30T08:54:16;6.30;;;3.50;;
11809;SDS011;5962;41.566;23.734;2024-01-30T08:56:45;3.97;;;2.30;;
11809;SDS011;5962;41.566;23.734;2024-01-30T08:59:13;1.67;;;1.57;;
11809;SDS011;5962;41.566;23.734;2024-01-30T09:01:42;5.20;;;3.00;;
11809;SDS011;5962;41.566;23.734;2024-01-30T09:04:14;2.27;;;2.00;;
11809;SDS011;5962;41.566;23.734;2024-01-30T09:06:42;5.97;;;2.87;;
11809;SDS011;5962;41.566;23.734;2024-01-30T09:09:10;3.83;;;2.33;;
11809;SDS011;5962;41.566;23.734;2024-01-30T09:11:38;8.63;;;2.57;;
11809;SDS011;5962;41.566;23.734;2024-01-30T09:14:06;4.17;;;2.47;;
11809;SDS011;5962;41.566;23.734;2024-01-30T09:16:35;3.00;;;2.00;;
11809;SDS011;5962;41.566;23.734;2024-01-30T09:19:04;3.13;;;1.90;;
11809;SDS011;5962;41.566;23.734;2024-01-30T09:21:32;2.00;;;1.80;;
11809;SDS011;5962;41.566;23.734;2024-01-30T09:24:01;1.63;;;1.43;;
11809;SDS011;5962;41.566;23.734;2024-01-30T09:26:31;2.43;;;1.93;;
11809;SDS011;5962;41.566;23.734;2024-01-30T09:28:59;3.10;;;2.63;;
11809;SDS011;5962;41.566;23.734;2024-01-30T09:31:26;2.00;;;1.53;;
11809;SDS011;5962;41.566;23.734;2024-01-30T09:33:55;3.00;;;2.23;;
11809;SDS011;5962;41.566;23.734;2024-01-30T09:36:24;3.10;;;2.27;;
11809;SDS011;5962;41.566;23.734;2024-01-30T09:38:52;4.00;;;2.10;;
11809;SDS011;5962;41.566;23.734;2024-01-30T09:41:20;1.87;;;1.70;;
11809;SDS011;5962;41.566;23.734;2024-01-30T09:43:52;3.60;;;1.50;;
11809;SDS011;5962;41.566;23.734;2024-01-30T09:46:22;2.97;;;1.70;;
11809;SDS011;5962;41.566;23.734;2024-01-30T09:48:54;4.80;;;2.63;;
11809;SDS011;5962;41.566;23.734;2024-01-30T09:51:24;3.13;;;1.93;;
11809;SDS011;5962;41.566;23.734;2024-01-30T09:53:54;2.37;;;1.83;;
11809;SDS011;5962;41.566;23.734;2024-01-30T09:56:22;3.03;;;2.47;;
11809;SDS011;5962;41.566;23.734;2024-01-30T09:58:50;2.43;;;1.87;;
11809;SDS011;5962;41.566;23.734;2024-01-30T10:01:18;1.30;;;1.20;;
11809;SDS011;5962;41.566;23.734;2024-01-30T10:03:49;3.27;;;2.10;;
11809;SDS011;5962;41.566;23.734;2024-01-30T10:06:18;2.00;;;1.70;;
11809;SDS011;5962;41.566;23.734;2024-01-30T10:08:49;3.37;;;2.30;;
11809;SDS011;5962;41.566;23.734;2024-01-30T10:11:16;3.87;;;2.47;;
11809;SDS011;5962;41.566;23.734;2024-01-30T10:13:44;2.67;;;2.30;;
11809;SDS011;5962;41.566;23.734;2024-01-30T10:16:13;15.03;;;3.33;;
11809;SDS011;5962;41.566;23.734;2024-01-30T10:18:41;6.53;;;2.43;;
11809;SDS011;5962;41.566;23.734;2024-01-30T10:21:09;2.77;;;2.17;;
11809;SDS011;5962;41.566;23.734;2024-01-30T10:23:38;2.30;;;2.10;;
11809;SDS011;5962;41.566;23.734;2024-01-30T10:26:08;2.23;;;1.50;;
11809;SDS011;5962;41.566;23.734;2024-01-30T10:28:36;2.37;;;1.73;;
11809;SDS011;5962;41.566;23.734;2024-01-30T10:31:04;4.13;;;1.90;;
11809;SDS011;5962;41.566;23.734;2024-01-30T10:33:32;3.43;;;2.20;;
11809;SDS011;5962;41.566;23.734;2024-01-30T10:36:01;3.50;;;1.73;;
11809;SDS011;5962;41.566;23.734;2024-01-30T10:38:31;3.77;;;1.93;;
11809;SDS011;5962;41.566;23.734;2024-01-30T10:41:00;2.37;;;2.00;;
11809;SDS011;5962;41.566;23.734;2024-01-30T10:43:32;4.40;;;1.97;;
11809;SDS011;5962;41.566;23.734;2024-01-30T10:46:05;3.00;;;2.00;;
11809;SDS011;5962;41.566;23.734;2024-01-30T10:48:40;1.73;;;1.47;;
11809;SDS011;5962;41.566;23.734;2024-01-30T10:51:11;5.30;;;1.70;;
11809;SDS011;5962;41.566;23.734;2024-01-30T10:53:41;3.37;;;2.07;;
11809;SDS011;5962;41.566;23.734;2024-01-30T10:56:11;11.47;;;3.30;;
11809;SDS011;5962;41.566;23.734;2024-01-30T10:58:41;2.20;;;1.90;;
11809;SDS011;5962;41.566;23.734;2024-01-30T11:01:09;5.20;;;3.00;;
11809;SDS011;5962;41.566;23.734;2024-01-30T11:03:38;2.67;;;1.50;;
11809;SDS011;5962;41.566;23.734;2024-01-30T11:06:10;4.83;;;2.10;;
11809;SDS011;5962;41.566;23.734;2024-01-30T11:08:38;2.83;;;1.90;;
11809;SDS011;5962;41.566;23.734;2024-01-30T11:11:08;7.33;;;1.70;;
11809;SDS011;5962;41.566;23.734;2024-01-30T11:13:38;1.40;;;1.30;;
11809;SDS011;5962;41.566;23.734;2024-01-30T11:16:07;1.13;;;1.07;;
11809;SDS011;5962;41.566;23.734;2024-01-30T11:18:38;3.83;;;1.90;;
11809;SDS011;5962;41.566;23.734;2024-01-30T11:21:06;6.60;;;3.77;;
11809;SDS011;5962;41.566;23.734;2024-01-30T11:23:34;3.03;;;2.10;;
11809;SDS011;5962;41.566;23.734;2024-01-30T11:26:03;4.43;;;2.90;;
11809;SDS011;5962;41.566;23.734;2024-01-30T11:28:32;5.00;;;2.93;;
11809;SDS011;5962;41.566;23.734;2024-01-30T11:31:05;6.43;;;2.87;;
11809;SDS011;5962;41.566;23.734;2024-01-30T11:33:35;6.50;;;2.97;;
11809;SDS011;5962;41.566;23.734;2024-01-30T11:36:04;2.20;;;1.30;;
11809;SDS011;5962;41.566;23.734;2024-01-30T11:38:34;2.03;;;1.77;;
11809;SDS011;5962;41.566;23.734;2024-01-30T11:41:02;5.10;;;1.70;;
11809;SDS011;5962;41.566;23.734;2024-01-30T11:43:32;2.10;;;1.40;;
11809;SDS011;5962;41.566;23.734;2024-01-30T11:46:01;3.83;;;1.70;;
11809;SDS011;5962;41.566;23.734;2024-01-30T11:48:29;1.90;;;1.70;;
11809;SDS011;5962;41.566;23.734;2024-01-30T11:50:59;5.30;;;1.80;;
11809;SDS011;5962;41.566;23.734;2024-01-30T11:53:27;3.30;;;2.10;;
11809;SDS011;5962;41.566;23.734;2024-01-30T11:55:55;2.80;;;2.00;;
11809;SDS011;5962;41.566;23.734;2024-01-30T11:58:24;4.13;;;2.67;;
11809;SDS011;5962;41.566;23.734;2024-01-30T12:00:53;1.50;;;1.40;;
11809;SDS011;5962;41.566;23.734;2024-01-30T12:03:22;1.97;;;1.23;;
11809;SDS011;5962;41.566;23.734;2024-01-30T12:05:54;4.47;;;2.00;;
11809;SDS011;5962;41.566;23.734;2024-01-30T12:08:25;2.50;;;2.10;;
11809;SDS011;5962;41.566;23.734;2024-01-30T12:10:56;2.33;;;1.73;;
11809;SDS011;5962;41.566;23.734;2024-01-30T12:13:27;1.60;;;1.50;;
11809;SDS011;5962;41.566;23.734;2024-01-30T12:15:57;4.77;;;1.73;;
11809;SDS011;5962;41.566;23.734;2024-01-30T12:18:25;1.30;;;1.13;;
11809;SDS011;5962;41.566;23.734;2024-01-30T12:20:57;8.97;;;1.97;;
11809;SDS011;5962;41.566;23.734;2024-01-30T12:23:27;1.40;;;1.30;;
11809;SDS011;5962;41.566;23.734;2024-01-30T12:25:55;2.07;;;1.47;;
11809;SDS011;5962;41.566;23.734;2024-01-30T12:28:24;1.43;;;1.33;;
11809;SDS011;5962;41.566;23.734;2024-01-30T12:30:55;1.27;;;1.17;;
11809;SDS011;5962;41.566;23.734;2024-01-30T12:33:26;3.13;;;1.80;;
11809;SDS011;5962;41.566;23.734;2024-01-30T12:35:54;2.93;;;1.40;;
11809;SDS011;5962;41.566;23.734;2024-01-30T12:38:23;1.10;;;1.10;;
11809;SDS011;5962;41.566;23.734;2024-01-30T12:40:55;3.43;;;1.20;;
11809;SDS011;5962;41.566;23.734;2024-01-30T12:43:24;4.93;;;1.80;;
11809;SDS011;5962;41.566;23.734;2024-01-30T12:45:56;1.30;;;1.00;;
11809;SDS011;5962;41.566;23.734;2024-01-30T12:48:24;1.50;;;1.40;;
11809;SDS011;5962;41.566;23.734;2024-01-30T12:50:53;4.40;;;2.60;;
11809;SDS011;5962;41.566;23.734;2024-01-30T12:53:21;2.43;;;1.93;;
11809;SDS011;5962;41.566;23.734;2024-01-30T12:55:49;4.33;;;2.43;;
11809;SDS011;5962;41.566;23.734;2024-01-30T12:58:19;5.03;;;3.07;;
11809;SDS011;5962;41.566;23.734;2024-01-30T13:00:47;2.03;;;1.37;;
11809;SDS011;5962;41.566;23.734;2024-01-30T13:03:15;2.80;;;1.63;;
11809;SDS011;5962;41.566;23.734;2024-01-30T13:05:43;2.07;;;1.60;;
11809;SDS011;5962;41.566;23.734;2024-01-30T13:08:11;1.60;;;1.50;;
11809;SDS011;5962;41.566;23.734;2024-01-30T13:10:39;1.30;;;1.20;;
11809;SDS011;5962;41.566;23.734;2024-01-30T13:13:07;2.07;;;1.53;;
11809;SDS011;5962;41.566;23.734;2024-01-30T13:15:38;4.17;;;1.40;;
11809;SDS011;5962;41.566;23.734;2024-01-30T13:18:06;1.80;;;1.20;;
11809;SDS011;5962;41.566;23.734;2024-01-30T13:20:34;1.70;;;1.23;;
11809;SDS011;5962;41.566;23.734;2024-01-30T13:23:02;2.33;;;1.63;;
11809;SDS011;5962;41.566;23.734;2024-01-30T13:25:30;2.47;;;1.90;;
11809;SDS011;5962;41.566;23.734;2024-01-30T13:27:58;1.57;;;1.10;;
11809;SDS011;5962;41.566;23.734;2024-01-30T13:30:27;2.13;;;1.30;;
11809;SDS011;5962;41.566;23.734;2024-01-30T13:32:57;5.03;;;1.93;;
11809;SDS011;5962;41.566;23.734;2024-01-30T13:35:25;2.97;;;1.87;;
11809;SDS011;5962;41.566;23.734;2024-01-30T13:37:53;2.00;;;1.67;;
11809;SDS011;5962;41.566;23.734;2024-01-30T13:40:20;2.93;;;1.90;;
11809;SDS011;5962;41.566;23.734;2024-01-30T13:42:49;1.20;;;1.00;;
11809;SDS011;5962;41.566;23.734;2024-01-30T13:45:17;1.50;;;1.30;;
11809;SDS011;5962;41.566;23.734;2024-01-30T13:47:46;2.40;;;1.77;;
11809;SDS011;5962;41.566;23.734;2024-01-30T13:50:16;5.50;;;2.50;;
11809;SDS011;5962;41.566;23.734;2024-01-30T13:52:44;3.60;;;1.57;;
11809;SDS011;5962;41.566;23.734;2024-01-30T13:55:12;2.33;;;2.07;;
11809;SDS011;5962;41.566;23.734;2024-01-30T13:57:40;2.37;;;1.60;;
11809;SDS011;5962;41.566;23.734;2024-01-30T14:00:09;1.43;;;1.30;;
11809;SDS011;5962;41.566;23.734;2024-01-30T14:02:37;6.60;;;2.50;;
11809;SDS011;5962;41.566;23.734;2024-01-30T14:05:06;3.90;;;3.07;;
11809;SDS011;5962;41.566;23.734;2024-01-30T14:07:36;9.30;;;3.77;;
11809;SDS011;5962;41.566;23.734;2024-01-30T14:10:07;18.43;;;9.03;;
11809;SDS011;5962;41.566;23.734;2024-01-30T14:12:36;2.23;;;1.97;;
11809;SDS011;5962;41.566;23.734;2024-01-30T14:15:04;4.30;;;2.90;;
11809;SDS011;5962;41.566;23.734;2024-01-30T14:17:38;3.77;;;2.50;;
11809;SDS011;5962;41.566;23.734;2024-01-30T14:20:06;3.47;;;2.00;;
11809;SDS011;5962;41.566;23.734;2024-01-30T14:22:36;4.50;;;2.90;;
11809;SDS011;5962;41.566;23.734;2024-01-30T14:25:05;4.47;;;2.87;;
11809;SDS011;5962;41.566;23.734;2024-01-30T14:27:34;1.80;;;1.50;;
11809;SDS011;5962;41.566;23.734;2024-01-30T14:30:03;2.10;;;1.60;;
11809;SDS011;5962;41.566;23.734;2024-01-30T14:32:31;2.13;;;1.93;;
11809;SDS011;5962;41.566;23.734;2024-01-30T14:34:59;3.23;;;2.40;;
11809;SDS011;5962;41.566;23.734;2024-01-30T14:37:27;8.30;;;4.20;;
11809;SDS011;5962;41.566;23.734;2024-01-30T14:39:57;1.63;;;1.53;;
11809;SDS011;5962;41.566;23.734;2024-01-30T14:42:26;3.87;;;2.30;;
11809;SDS011;5962;41.566;23.734;2024-01-30T14:44:57;8.17;;;2.17;;
11809;SDS011;5962;41.566;23.734;2024-01-30T14:47:25;7.47;;;3.60;;
11809;SDS011;5962;41.566;23.734;2024-01-30T14:49:53;6.63;;;3.37;;
11809;SDS011;5962;41.566;23.734;2024-01-30T14:52:21;6.13;;;2.70;;
11809;SDS011;5962;41.566;23.734;2024-01-30T14:54:50;6.23;;;2.93;;
11809;SDS011;5962;41.566;23.734;2024-01-30T14:57:19;4.27;;;2.70;;